Varna, Bulgaria
Current Conditions -  °F | °C
As of 9:30 PM on Thursday 27 Nov 2014 (Local Time) from LBWN Reporting Station
Broken Clouds Broken Clouds  
Wind Chill: -2°   Ceiling: 2100
Heat Index:   Visibility: 6mi
Dew Point: -4°   Wind: 4mph
Humidity: 75%   Direction: 330°NNW
Pressure: 30.27"   Gusts: NA
Location:  43.21°N, 27.9°E
Report Text: LBWN 271830Z 33002MPS 9999 BKN021 00/M04 Q1025 NOSIG
Loading
Personal Weather Stations






























Interactive Weather Map New forecast layout! Learn more

10-Day Weather Forecast

Advertisements
Track Severe Weather on mobile